New Madison, Ohio
Current Conditions -  °F | °C
As of 7:15 AM on Sunday 23 Nov 2014 (Local Time) from KVES Reporting Station
Broken Clouds Broken Clouds  
Wind Chill: 40°   Ceiling: 8500
Heat Index: 45°   Visibility: 10mi
Dew Point: 39°   Wind: 8mph
Humidity: 81%   Direction: 170°S
Pressure: 29.95"   Gusts: NA
Location:  39.97°N, 84.71°W
Report Text: KVES 231215Z AUTO 17007KT 10SM BKN085 07/04 A2995 RMK AO2
Loading
Personal Weather Stations






























Interactive Weather Map New forecast layout! Learn more

10-Day Weather Forecast

Advertisements
Track Severe Weather on mobile